sensor_id;sensor_type;location;lat;lon;timestamp;P1;durP1;ratioP1;P2;durP2;ratioP2
3845;SDS011;1938;50.812;7.738;2023-05-10T00:00:53;7.10;;;2.90;;
3845;SDS011;1938;50.812;7.738;2023-05-10T00:03:19;5.30;;;3.40;;
3845;SDS011;1938;50.812;7.738;2023-05-10T00:05:44;5.20;;;2.77;;
3845;SDS011;1938;50.812;7.738;2023-05-10T00:08:10;5.43;;;3.30;;
3845;SDS011;1938;50.812;7.738;2023-05-10T00:10:35;5.57;;;3.67;;
3845;SDS011;1938;50.812;7.738;2023-05-10T00:13:03;6.97;;;4.60;;
3845;SDS011;1938;50.812;7.738;2023-05-10T00:15:29;5.13;;;3.00;;
3845;SDS011;1938;50.812;7.738;2023-05-10T00:17:55;5.60;;;3.47;;
3845;SDS011;1938;50.812;7.738;2023-05-10T00:20:21;7.43;;;3.43;;
3845;SDS011;1938;50.812;7.738;2023-05-10T00:22:47;6.30;;;3.10;;
3845;SDS011;1938;50.812;7.738;2023-05-10T00:25:12;3.90;;;2.27;;
3845;SDS011;1938;50.812;7.738;2023-05-10T00:27:38;3.77;;;2.00;;
3845;SDS011;1938;50.812;7.738;2023-05-10T00:30:04;3.90;;;1.90;;
3845;SDS011;1938;50.812;7.738;2023-05-10T00:32:30;3.30;;;1.70;;
3845;SDS011;1938;50.812;7.738;2023-05-10T00:34:55;4.47;;;2.20;;
3845;SDS011;1938;50.812;7.738;2023-05-10T00:37:21;2.80;;;1.10;;
3845;SDS011;1938;50.812;7.738;2023-05-10T00:39:46;5.00;;;1.40;;
3845;SDS011;1938;50.812;7.738;2023-05-10T00:42:12;3.30;;;1.50;;
3845;SDS011;1938;50.812;7.738;2023-05-10T00:44:37;3.93;;;1.40;;
3845;SDS011;1938;50.812;7.738;2023-05-10T00:47:03;3.00;;;1.20;;
3845;SDS011;1938;50.812;7.738;2023-05-10T00:49:28;4.20;;;1.27;;
3845;SDS011;1938;50.812;7.738;2023-05-10T00:51:54;3.43;;;1.60;;
3845;SDS011;1938;50.812;7.738;2023-05-10T00:54:20;3.67;;;1.50;;
3845;SDS011;1938;50.812;7.738;2023-05-10T00:56:46;3.20;;;1.53;;
3845;SDS011;1938;50.812;7.738;2023-05-10T00:59:14;3.23;;;1.40;;
3845;SDS011;1938;50.812;7.738;2023-05-10T01:01:43;3.20;;;1.50;;
3845;SDS011;1938;50.812;7.738;2023-05-10T01:04:12;3.87;;;1.77;;
3845;SDS011;1938;50.812;7.738;2023-05-10T01:06:39;3.87;;;1.73;;
3845;SDS011;1938;50.812;7.738;2023-05-10T01:09:05;6.40;;;2.40;;
3845;SDS011;1938;50.812;7.738;2023-05-10T01:11:32;4.47;;;2.37;;
3845;SDS011;1938;50.812;7.738;2023-05-10T01:13:58;4.70;;;2.63;;
3845;SDS011;1938;50.812;7.738;2023-05-10T01:16:24;5.07;;;2.40;;
3845;SDS011;1938;50.812;7.738;2023-05-10T01:18:51;3.43;;;1.70;;
3845;SDS011;1938;50.812;7.738;2023-05-10T01:29:27;4.07;;;2.37;;
3845;SDS011;1938;50.812;7.738;2023-05-10T01:34:37;5.30;;;3.10;;
3845;SDS011;1938;50.812;7.738;2023-05-10T01:37:09;5.40;;;3.10;;
3845;SDS011;1938;50.812;7.738;2023-05-10T01:42:16;5.83;;;3.93;;
3845;SDS011;1938;50.812;7.738;2023-05-10T01:44:54;8.33;;;4.27;;
3845;SDS011;1938;50.812;7.738;2023-05-10T01:47:50;6.77;;;4.13;;
3845;SDS011;1938;50.812;7.738;2023-05-10T01:50:27;7.33;;;4.50;;
3845;SDS011;1938;50.812;7.738;2023-05-10T01:52:57;6.50;;;4.23;;
3845;SDS011;1938;50.812;7.738;2023-05-10T01:55:27;9.93;;;5.63;;
3845;SDS011;1938;50.812;7.738;2023-05-10T01:57:58;8.60;;;4.93;;
3845;SDS011;1938;50.812;7.738;2023-05-10T02:00:28;7.67;;;4.27;;
3845;SDS011;1938;50.812;7.738;2023-05-10T02:02:56;6.53;;;4.33;;
3845;SDS011;1938;50.812;7.738;2023-05-10T02:05:22;7.57;;;4.70;;
3845;SDS011;1938;50.812;7.738;2023-05-10T02:07:49;7.90;;;5.60;;
3845;SDS011;1938;50.812;7.738;2023-05-10T02:10:15;8.23;;;5.40;;
3845;SDS011;1938;50.812;7.738;2023-05-10T02:12:43;14.90;;;6.37;;
3845;SDS011;1938;50.812;7.738;2023-05-10T02:15:12;8.00;;;5.20;;
3845;SDS011;1938;50.812;7.738;2023-05-10T02:17:42;9.30;;;5.40;;
3845;SDS011;1938;50.812;7.738;2023-05-10T02:20:08;7.73;;;5.00;;
3845;SDS011;1938;50.812;7.738;2023-05-10T02:22:36;7.80;;;4.80;;
3845;SDS011;1938;50.812;7.738;2023-05-10T02:25:03;7.60;;;5.20;;
3845;SDS011;1938;50.812;7.738;2023-05-10T02:27:31;8.13;;;5.47;;
3845;SDS011;1938;50.812;7.738;2023-05-10T02:29:57;9.63;;;6.67;;
3845;SDS011;1938;50.812;7.738;2023-05-10T02:32:23;11.23;;;6.90;;
3845;SDS011;1938;50.812;7.738;2023-05-10T02:34:51;9.60;;;6.00;;
3845;SDS011;1938;50.812;7.738;2023-05-10T02:37:20;13.50;;;6.33;;
3845;SDS011;1938;50.812;7.738;2023-05-10T02:39:50;9.50;;;6.37;;
3845;SDS011;1938;50.812;7.738;2023-05-10T02:42:19;11.07;;;6.73;;
3845;SDS011;1938;50.812;7.738;2023-05-10T02:44:52;13.77;;;8.47;;
3845;SDS011;1938;50.812;7.738;2023-05-10T02:47:24;12.53;;;7.03;;
3845;SDS011;1938;50.812;7.738;2023-05-10T02:49:50;11.50;;;6.73;;
3845;SDS011;1938;50.812;7.738;2023-05-10T02:52:16;10.63;;;6.27;;
3845;SDS011;1938;50.812;7.738;2023-05-10T02:54:50;13.70;;;7.30;;
3845;SDS011;1938;50.812;7.738;2023-05-10T02:57:22;14.00;;;6.47;;
3845;SDS011;1938;50.812;7.738;2023-05-10T02:59:52;12.40;;;6.00;;
3845;SDS011;1938;50.812;7.738;2023-05-10T03:02:18;13.37;;;7.30;;
3845;SDS011;1938;50.812;7.738;2023-05-10T03:04:44;12.70;;;7.30;;
3845;SDS011;1938;50.812;7.738;2023-05-10T03:07:10;9.93;;;5.43;;
3845;SDS011;1938;50.812;7.738;2023-05-10T03:09:36;9.30;;;5.70;;
3845;SDS011;1938;50.812;7.738;2023-05-10T03:12:15;9.13;;;5.10;;
3845;SDS011;1938;50.812;7.738;2023-05-10T03:15:19;8.10;;;4.90;;
3845;SDS011;1938;50.812;7.738;2023-05-10T03:18:00;8.00;;;4.93;;
3845;SDS011;1938;50.812;7.738;2023-05-10T03:20:34;7.50;;;4.30;;
3845;SDS011;1938;50.812;7.738;2023-05-10T03:23:13;7.90;;;4.97;;
3845;SDS011;1938;50.812;7.738;2023-05-10T03:25:49;8.87;;;4.70;;
3845;SDS011;1938;50.812;7.738;2023-05-10T03:28:16;9.00;;;5.00;;
3845;SDS011;1938;50.812;7.738;2023-05-10T03:30:43;8.43;;;5.00;;
3845;SDS011;1938;50.812;7.738;2023-05-10T03:33:09;8.90;;;5.37;;
3845;SDS011;1938;50.812;7.738;2023-05-10T03:35:35;12.93;;;5.03;;
3845;SDS011;1938;50.812;7.738;2023-05-10T03:38:01;7.77;;;4.83;;
3845;SDS011;1938;50.812;7.738;2023-05-10T03:40:27;12.37;;;5.33;;
3845;SDS011;1938;50.812;7.738;2023-05-10T03:42:59;13.87;;;6.53;;
3845;SDS011;1938;50.812;7.738;2023-05-10T03:45:25;8.90;;;5.63;;
3845;SDS011;1938;50.812;7.738;2023-05-10T03:47:51;9.53;;;5.20;;
3845;SDS011;1938;50.812;7.738;2023-05-10T03:50:17;8.93;;;5.50;;
3845;SDS011;1938;50.812;7.738;2023-05-10T03:52:43;10.13;;;6.30;;
3845;SDS011;1938;50.812;7.738;2023-05-10T03:55:09;10.07;;;6.07;;
3845;SDS011;1938;50.812;7.738;2023-05-10T03:57:35;10.87;;;6.40;;
3845;SDS011;1938;50.812;7.738;2023-05-10T04:00:01;10.97;;;6.67;;
3845;SDS011;1938;50.812;7.738;2023-05-10T04:02:27;11.97;;;6.57;;
3845;SDS011;1938;50.812;7.738;2023-05-10T04:04:53;8.77;;;6.17;;
3845;SDS011;1938;50.812;7.738;2023-05-10T04:07:19;9.93;;;6.00;;
3845;SDS011;1938;50.812;7.738;2023-05-10T04:09:44;11.70;;;5.73;;
3845;SDS011;1938;50.812;7.738;2023-05-10T04:12:10;7.47;;;4.73;;
3845;SDS011;1938;50.812;7.738;2023-05-10T04:14:35;8.53;;;4.90;;
3845;SDS011;1938;50.812;7.738;2023-05-10T04:17:02;19.10;;;9.50;;
3845;SDS011;1938;50.812;7.738;2023-05-10T04:19:30;7.90;;;4.73;;
3845;SDS011;1938;50.812;7.738;2023-05-10T04:21:56;5.20;;;3.00;;
3845;SDS011;1938;50.812;7.738;2023-05-10T04:24:23;6.50;;;4.10;;
3845;SDS011;1938;50.812;7.738;2023-05-10T04:26:49;7.43;;;3.37;;
3845;SDS011;1938;50.812;7.738;2023-05-10T04:29:15;7.10;;;2.33;;
3845;SDS011;1938;50.812;7.738;2023-05-10T04:31:41;5.10;;;3.00;;
3845;SDS011;1938;50.812;7.738;2023-05-10T04:34:07;5.63;;;2.87;;
3845;SDS011;1938;50.812;7.738;2023-05-10T04:36:32;10.47;;;3.00;;
3845;SDS011;1938;50.812;7.738;2023-05-10T04:39:00;8.23;;;2.60;;
3845;SDS011;1938;50.812;7.738;2023-05-10T04:41:25;5.23;;;2.90;;
3845;SDS011;1938;50.812;7.738;2023-05-10T04:43:51;6.73;;;2.77;;
3845;SDS011;1938;50.812;7.738;2023-05-10T04:46:16;5.30;;;3.17;;
3845;SDS011;1938;50.812;7.738;2023-05-10T04:48:42;8.20;;;2.10;;
3845;SDS011;1938;50.812;7.738;2023-05-10T04:51:08;5.37;;;3.00;;
3845;SDS011;1938;50.812;7.738;2023-05-10T04:53:33;7.30;;;3.63;;
3845;SDS011;1938;50.812;7.738;2023-05-10T04:55:59;8.67;;;3.80;;
3845;SDS011;1938;50.812;7.738;2023-05-10T04:58:25;7.70;;;4.03;;
3845;SDS011;1938;50.812;7.738;2023-05-10T05:00:51;7.63;;;4.27;;
3845;SDS011;1938;50.812;7.738;2023-05-10T05:03:16;9.00;;;5.17;;
3845;SDS011;1938;50.812;7.738;2023-05-10T05:05:42;7.63;;;4.47;;
3845;SDS011;1938;50.812;7.738;2023-05-10T05:08:09;8.80;;;5.20;;
3845;SDS011;1938;50.812;7.738;2023-05-10T05:10:34;9.07;;;5.03;;
3845;SDS011;1938;50.812;7.738;2023-05-10T05:13:00;11.07;;;5.00;;
3845;SDS011;1938;50.812;7.738;2023-05-10T05:15:26;9.33;;;5.67;;
3845;SDS011;1938;50.812;7.738;2023-05-10T05:17:52;11.97;;;5.37;;
3845;SDS011;1938;50.812;7.738;2023-05-10T05:20:18;11.90;;;6.70;;
3845;SDS011;1938;50.812;7.738;2023-05-10T05:22:44;15.67;;;6.57;;
3845;SDS011;1938;50.812;7.738;2023-05-10T05:25:09;12.90;;;6.97;;
3845;SDS011;1938;50.812;7.738;2023-05-10T05:27:36;11.63;;;5.93;;
3845;SDS011;1938;50.812;7.738;2023-05-10T05:30:03;14.20;;;7.97;;
3845;SDS011;1938;50.812;7.738;2023-05-10T05:32:29;12.40;;;6.70;;
3845;SDS011;1938;50.812;7.738;2023-05-10T05:34:55;16.20;;;7.53;;
3845;SDS011;1938;50.812;7.738;2023-05-10T05:37:21;13.23;;;7.37;;
3845;SDS011;1938;50.812;7.738;2023-05-10T05:39:47;12.47;;;7.20;;
3845;SDS011;1938;50.812;7.738;2023-05-10T05:42:13;12.37;;;6.60;;
3845;SDS011;1938;50.812;7.738;2023-05-10T05:44:39;14.40;;;6.87;;
3845;SDS011;1938;50.812;7.738;2023-05-10T05:47:05;12.40;;;7.50;;
3845;SDS011;1938;50.812;7.738;2023-05-10T05:49:31;13.17;;;7.00;;
3845;SDS011;1938;50.812;7.738;2023-05-10T05:52:00;13.80;;;7.30;;
3845;SDS011;1938;50.812;7.738;2023-05-10T05:54:27;10.20;;;6.13;;
3845;SDS011;1938;50.812;7.738;2023-05-10T05:56:56;15.80;;;6.63;;
3845;SDS011;1938;50.812;7.738;2023-05-10T05:59:25;11.63;;;6.97;;
3845;SDS011;1938;50.812;7.738;2023-05-10T06:01:51;21.73;;;8.30;;
3845;SDS011;1938;50.812;7.738;2023-05-10T06:04:17;11.83;;;7.30;;
3845;SDS011;1938;50.812;7.738;2023-05-10T06:06:43;12.50;;;7.13;;
3845;SDS011;1938;50.812;7.738;2023-05-10T06:09:08;11.20;;;6.93;;
3845;SDS011;1938;50.812;7.738;2023-05-10T06:11:34;14.90;;;8.30;;
3845;SDS011;1938;50.812;7.738;2023-05-10T06:14:00;12.57;;;6.93;;
3845;SDS011;1938;50.812;7.738;2023-05-10T06:16:26;13.13;;;8.00;;
3845;SDS011;1938;50.812;7.738;2023-05-10T06:18:52;13.53;;;7.83;;
3845;SDS011;1938;50.812;7.738;2023-05-10T06:21:18;14.40;;;7.83;;
3845;SDS011;1938;50.812;7.738;2023-05-10T06:23:44;17.00;;;9.43;;
3845;SDS011;1938;50.812;7.738;2023-05-10T06:26:09;12.93;;;8.13;;
3845;SDS011;1938;50.812;7.738;2023-05-10T06:28:35;21.60;;;9.87;;
3845;SDS011;1938;50.812;7.738;2023-05-10T06:31:03;14.37;;;8.40;;
3845;SDS011;1938;50.812;7.738;2023-05-10T06:33:29;14.10;;;7.47;;
3845;SDS011;1938;50.812;7.738;2023-05-10T06:35:54;11.20;;;7.47;;
3845;SDS011;1938;50.812;7.738;2023-05-10T06:38:21;12.07;;;6.90;;
3845;SDS011;1938;50.812;7.738;2023-05-10T06:40:47;8.60;;;5.20;;
3845;SDS011;1938;50.812;7.738;2023-05-10T06:43:12;8.77;;;5.63;;
3845;SDS011;1938;50.812;7.738;2023-05-10T06:45:38;10.27;;;5.90;;
3845;SDS011;1938;50.812;7.738;2023-05-10T06:48:04;9.87;;;6.03;;
3845;SDS011;1938;50.812;7.738;2023-05-10T06:50:29;9.40;;;5.73;;
3845;SDS011;1938;50.812;7.738;2023-05-10T06:52:55;10.50;;;5.90;;
3845;SDS011;1938;50.812;7.738;2023-05-10T06:55:20;8.50;;;5.23;;
3845;SDS011;1938;50.812;7.738;2023-05-10T06:57:46;7.83;;;4.57;;
3845;SDS011;1938;50.812;7.738;2023-05-10T07:00:12;7.20;;;4.40;;
3845;SDS011;1938;50.812;7.738;2023-05-10T07:02:38;6.60;;;3.70;;
3845;SDS011;1938;50.812;7.738;2023-05-10T07:05:04;5.13;;;2.73;;
3845;SDS011;1938;50.812;7.738;2023-05-10T07:07:30;7.20;;;3.27;;
3845;SDS011;1938;50.812;7.738;2023-05-10T07:09:56;6.40;;;3.10;;
3845;SDS011;1938;50.812;7.738;2023-05-10T07:12:22;8.20;;;4.43;;
3845;SDS011;1938;50.812;7.738;2023-05-10T07:14:48;9.67;;;5.07;;
3845;SDS011;1938;50.812;7.738;2023-05-10T07:17:13;11.70;;;6.53;;
3845;SDS011;1938;50.812;7.738;2023-05-10T07:19:39;11.17;;;7.03;;
3845;SDS011;1938;50.812;7.738;2023-05-10T07:22:04;16.37;;;9.10;;
3845;SDS011;1938;50.812;7.738;2023-05-10T07:24:31;19.37;;;11.30;;
3845;SDS011;1938;50.812;7.738;2023-05-10T07:26:57;16.80;;;10.43;;
3845;SDS011;1938;50.812;7.738;2023-05-10T07:29:22;16.40;;;9.40;;
3845;SDS011;1938;50.812;7.738;2023-05-10T07:31:48;22.47;;;10.50;;
3845;SDS011;1938;50.812;7.738;2023-05-10T07:34:13;19.00;;;11.20;;
3845;SDS011;1938;50.812;7.738;2023-05-10T07:36:39;22.57;;;11.53;;
3845;SDS011;1938;50.812;7.738;2023-05-10T07:39:05;22.10;;;11.07;;
3845;SDS011;1938;50.812;7.738;2023-05-10T07:41:31;19.00;;;11.30;;
3845;SDS011;1938;50.812;7.738;2023-05-10T07:43:57;26.23;;;13.10;;
3845;SDS011;1938;50.812;7.738;2023-05-10T07:46:23;31.17;;;12.70;;
3845;SDS011;1938;50.812;7.738;2023-05-10T07:48:48;26.13;;;13.07;;
3845;SDS011;1938;50.812;7.738;2023-05-10T07:51:14;20.80;;;11.70;;
3845;SDS011;1938;50.812;7.738;2023-05-10T07:53:39;19.40;;;10.90;;
3845;SDS011;1938;50.812;7.738;2023-05-10T07:56:24;26.20;;;13.50;;
3845;SDS011;1938;50.812;7.738;2023-05-10T07:58:54;22.13;;;13.17;;
3845;SDS011;1938;50.812;7.738;2023-05-10T08:01:20;23.20;;;13.87;;
3845;SDS011;1938;50.812;7.738;2023-05-10T08:03:46;24.33;;;13.67;;
3845;SDS011;1938;50.812;7.738;2023-05-10T08:06:12;20.90;;;12.50;;
3845;SDS011;1938;50.812;7.738;2023-05-10T08:08:38;21.23;;;13.07;;
3845;SDS011;1938;50.812;7.738;2023-05-10T08:11:04;22.63;;;12.43;;
3845;SDS011;1938;50.812;7.738;2023-05-10T08:13:29;20.23;;;11.67;;
3845;SDS011;1938;50.812;7.738;2023-05-10T08:15:56;20.47;;;13.00;;
3845;SDS011;1938;50.812;7.738;2023-05-10T08:18:21;20.40;;;11.50;;
3845;SDS011;1938;50.812;7.738;2023-05-10T08:20:47;15.03;;;10.13;;
3845;SDS011;1938;50.812;7.738;2023-05-10T08:23:13;18.03;;;9.83;;
3845;SDS011;1938;50.812;7.738;2023-05-10T08:25:38;15.90;;;10.07;;
3845;SDS011;1938;50.812;7.738;2023-05-10T08:28:04;19.70;;;10.20;;
3845;SDS011;1938;50.812;7.738;2023-05-10T08:30:30;19.00;;;10.17;;
3845;SDS011;1938;50.812;7.738;2023-05-10T08:32:55;17.23;;;9.67;;
3845;SDS011;1938;50.812;7.738;2023-05-10T08:35:21;18.67;;;7.80;;
3845;SDS011;1938;50.812;7.738;2023-05-10T08:37:47;15.80;;;8.20;;
3845;SDS011;1938;50.812;7.738;2023-05-10T08:40:12;16.37;;;8.40;;
3845;SDS011;1938;50.812;7.738;2023-05-10T08:42:40;16.43;;;7.30;;
3845;SDS011;1938;50.812;7.738;2023-05-10T08:45:10;16.43;;;6.20;;
3845;SDS011;1938;50.812;7.738;2023-05-10T08:47:37;15.63;;;5.90;;
3845;SDS011;1938;50.812;7.738;2023-05-10T08:50:04;15.87;;;7.00;;
3845;SDS011;1938;50.812;7.738;2023-05-10T08:52:30;11.47;;;6.10;;
3845;SDS011;1938;50.812;7.738;2023-05-10T08:54:58;13.10;;;5.77;;
3845;SDS011;1938;50.812;7.738;2023-05-10T08:57:24;15.73;;;5.40;;
3845;SDS011;1938;50.812;7.738;2023-05-10T08:59:50;9.90;;;5.07;;
3845;SDS011;1938;50.812;7.738;2023-05-10T09:02:15;9.57;;;5.03;;
3845;SDS011;1938;50.812;7.738;2023-05-10T09:04:43;10.37;;;5.67;;
3845;SDS011;1938;50.812;7.738;2023-05-10T09:07:08;12.70;;;5.93;;
3845;SDS011;1938;50.812;7.738;2023-05-10T09:09:35;10.77;;;5.87;;
3845;SDS011;1938;50.812;7.738;2023-05-10T09:12:02;12.67;;;6.30;;
3845;SDS011;1938;50.812;7.738;2023-05-10T09:14:27;13.60;;;5.90;;
3845;SDS011;1938;50.812;7.738;2023-05-10T09:16:53;13.00;;;6.43;;
3845;SDS011;1938;50.812;7.738;2023-05-10T09:19:20;10.83;;;5.50;;
3845;SDS011;1938;50.812;7.738;2023-05-10T09:21:45;11.53;;;6.77;;
3845;SDS011;1938;50.812;7.738;2023-05-10T09:24:11;16.70;;;5.93;;
3845;SDS011;1938;50.812;7.738;2023-05-10T09:26:45;8.53;;;5.33;;
3845;SDS011;1938;50.812;7.738;2023-05-10T09:29:14;12.13;;;4.60;;
3845;SDS011;1938;50.812;7.738;2023-05-10T09:31:47;7.23;;;3.70;;
3845;SDS011;1938;50.812;7.738;2023-05-10T09:34:20;8.13;;;3.80;;
3845;SDS011;1938;50.812;7.738;2023-05-10T09:36:55;8.37;;;3.60;;
3845;SDS011;1938;50.812;7.738;2023-05-10T09:39:35;7.70;;;3.40;;
3845;SDS011;1938;50.812;7.738;2023-05-10T09:42:03;11.27;;;3.27;;
3845;SDS011;1938;50.812;7.738;2023-05-10T09:44:30;8.47;;;3.83;;
3845;SDS011;1938;50.812;7.738;2023-05-10T09:46:56;8.63;;;3.67;;
3845;SDS011;1938;50.812;7.738;2023-05-10T09:49:22;9.43;;;4.10;;
3845;SDS011;1938;50.812;7.738;2023-05-10T09:51:59;7.03;;;3.60;;
3845;SDS011;1938;50.812;7.738;2023-05-10T09:54:25;6.97;;;3.43;;
3845;SDS011;1938;50.812;7.738;2023-05-10T09:56:50;7.97;;;4.90;;
3845;SDS011;1938;50.812;7.738;2023-05-10T09:59:16;7.90;;;3.70;;
3845;SDS011;1938;50.812;7.738;2023-05-10T10:01:43;8.13;;;3.60;;
3845;SDS011;1938;50.812;7.738;2023-05-10T10:04:14;11.10;;;4.10;;
3845;SDS011;1938;50.812;7.738;2023-05-10T10:06:41;5.20;;;2.90;;
3845;SDS011;1938;50.812;7.738;2023-05-10T10:09:06;5.77;;;3.43;;
3845;SDS011;1938;50.812;7.738;2023-05-10T10:11:36;5.87;;;3.27;;
3845;SDS011;1938;50.812;7.738;2023-05-10T10:14:02;6.37;;;2.70;;
3845;SDS011;1938;50.812;7.738;2023-05-10T10:16:29;5.93;;;2.40;;
3845;SDS011;1938;50.812;7.738;2023-05-10T10:18:55;5.47;;;2.10;;
3845;SDS011;1938;50.812;7.738;2023-05-10T10:21:20;6.13;;;2.80;;
3845;SDS011;1938;50.812;7.738;2023-05-10T10:23:47;6.17;;;3.33;;
3845;SDS011;1938;50.812;7.738;2023-05-10T10:26:13;5.77;;;2.10;;
3845;SDS011;1938;50.812;7.738;2023-05-10T10:33:59;3.80;;;1.83;;
3845;SDS011;1938;50.812;7.738;2023-05-10T10:36:26;6.00;;;2.20;;
3845;SDS011;1938;50.812;7.738;2023-05-10T10:49:25;4.77;;;2.00;;
3845;SDS011;1938;50.812;7.738;2023-05-10T10:54:57;5.50;;;2.33;;
3845;SDS011;1938;50.812;7.738;2023-05-10T11:03:08;10.00;;;2.70;;
3845;SDS011;1938;50.812;7.738;2023-05-10T11:08:15;4.30;;;2.20;;
3845;SDS011;1938;50.812;7.738;2023-05-10T11:10:50;3.73;;;1.83;;
3845;SDS011;1938;50.812;7.738;2023-05-10T11:13:41;7.00;;;2.10;;
3845;SDS011;1938;50.812;7.738;2023-05-10T11:16:10;6.20;;;2.87;;
3845;SDS011;1938;50.812;7.738;2023-05-10T11:18:38;4.90;;;2.20;;
3845;SDS011;1938;50.812;7.738;2023-05-10T11:21:04;4.00;;;1.73;;
3845;SDS011;1938;50.812;7.738;2023-05-10T11:26:07;3.70;;;1.70;;
3845;SDS011;1938;50.812;7.738;2023-05-10T11:28:34;4.20;;;2.20;;
3845;SDS011;1938;50.812;7.738;2023-05-10T11:31:06;4.43;;;2.40;;
3845;SDS011;1938;50.812;7.738;2023-05-10T11:33:31;4.90;;;2.07;;
3845;SDS011;1938;50.812;7.738;2023-05-10T11:36:16;5.90;;;2.50;;
3845;SDS011;1938;50.812;7.738;2023-05-10T11:38:43;5.17;;;2.53;;
3845;SDS011;1938;50.812;7.738;2023-05-10T11:41:09;6.70;;;2.60;;
3845;SDS011;1938;50.812;7.738;2023-05-10T11:43:36;5.40;;;2.30;;
3845;SDS011;1938;50.812;7.738;2023-05-10T11:46:10;5.20;;;2.67;;
3845;SDS011;1938;50.812;7.738;2023-05-10T11:48:40;7.10;;;2.30;;
3845;SDS011;1938;50.812;7.738;2023-05-10T11:51:06;5.37;;;2.57;;
3845;SDS011;1938;50.812;7.738;2023-05-10T11:53:33;7.33;;;2.30;;
3845;SDS011;1938;50.812;7.738;2023-05-10T11:56:02;4.93;;;2.30;;
3845;SDS011;1938;50.812;7.738;2023-05-10T11:58:36;4.47;;;2.33;;
3845;SDS011;1938;50.812;7.738;2023-05-10T12:01:03;5.17;;;2.60;;
3845;SDS011;1938;50.812;7.738;2023-05-10T12:03:30;4.90;;;2.70;;
3845;SDS011;1938;50.812;7.738;2023-05-10T12:05:55;4.40;;;2.63;;
3845;SDS011;1938;50.812;7.738;2023-05-10T12:08:22;5.30;;;2.70;;
3845;SDS011;1938;50.812;7.738;2023-05-10T12:10:50;4.70;;;2.50;;
3845;SDS011;1938;50.812;7.738;2023-05-10T12:13:16;6.07;;;2.27;;
3845;SDS011;1938;50.812;7.738;2023-05-10T12:15:42;5.47;;;2.40;;
3845;SDS011;1938;50.812;7.738;2023-05-10T12:18:11;8.00;;;3.37;;
3845;SDS011;1938;50.812;7.738;2023-05-10T12:20:38;8.93;;;3.70;;
3845;SDS011;1938;50.812;7.738;2023-05-10T12:23:05;6.50;;;3.00;;
3845;SDS011;1938;50.812;7.738;2023-05-10T12:25:31;6.63;;;3.40;;
3845;SDS011;1938;50.812;7.738;2023-05-10T12:27:58;7.33;;;3.40;;
3845;SDS011;1938;50.812;7.738;2023-05-10T12:30:26;8.67;;;4.50;;
3845;SDS011;1938;50.812;7.738;2023-05-10T12:32:54;10.37;;;5.50;;
3845;SDS011;1938;50.812;7.738;2023-05-10T12:35:25;8.03;;;5.00;;
3845;SDS011;1938;50.812;7.738;2023-05-10T12:37:51;10.60;;;5.03;;
3845;SDS011;1938;50.812;7.738;2023-05-10T12:40:16;10.37;;;5.00;;
3845;SDS011;1938;50.812;7.738;2023-05-10T12:42:42;11.07;;;5.40;;
3845;SDS011;1938;50.812;7.738;2023-05-10T12:45:10;11.63;;;6.03;;
3845;SDS011;1938;50.812;7.738;2023-05-10T12:47:36;10.63;;;4.93;;
3845;SDS011;1938;50.812;7.738;2023-05-10T12:50:02;8.53;;;4.90;;
3845;SDS011;1938;50.812;7.738;2023-05-10T12:52:28;12.47;;;6.27;;
3845;SDS011;1938;50.812;7.738;2023-05-10T12:54:54;12.63;;;6.53;;
3845;SDS011;1938;50.812;7.738;2023-05-10T12:57:20;13.40;;;5.90;;
3845;SDS011;1938;50.812;7.738;2023-05-10T12:59:46;14.20;;;5.90;;
3845;SDS011;1938;50.812;7.738;2023-05-10T13:02:12;10.83;;;5.90;;
3845;SDS011;1938;50.812;7.738;2023-05-10T13:04:39;11.67;;;6.50;;
3845;SDS011;1938;50.812;7.738;2023-05-10T13:07:06;11.70;;;6.00;;
3845;SDS011;1938;50.812;7.738;2023-05-10T13:09:31;12.10;;;6.30;;
3845;SDS011;1938;50.812;7.738;2023-05-10T13:11:57;12.60;;;6.17;;
3845;SDS011;1938;50.812;7.738;2023-05-10T13:14:23;13.10;;;6.90;;
3845;SDS011;1938;50.812;7.738;2023-05-10T13:16:49;13.87;;;6.53;;
3845;SDS011;1938;50.812;7.738;2023-05-10T13:19:15;13.50;;;7.37;;
3845;SDS011;1938;50.812;7.738;2023-05-10T13:21:41;11.93;;;6.57;;
3845;SDS011;1938;50.812;7.738;2023-05-10T13:24:07;14.10;;;6.77;;
3845;SDS011;1938;50.812;7.738;2023-05-10T13:26:33;12.13;;;7.30;;
3845;SDS011;1938;50.812;7.738;2023-05-10T13:28:59;16.33;;;7.73;;
3845;SDS011;1938;50.812;7.738;2023-05-10T13:31:25;14.57;;;8.07;;
3845;SDS011;1938;50.812;7.738;2023-05-10T13:33:50;12.97;;;6.53;;
3845;SDS011;1938;50.812;7.738;2023-05-10T13:36:16;11.80;;;6.70;;
3845;SDS011;1938;50.812;7.738;2023-05-10T13:38:41;13.27;;;6.70;;
3845;SDS011;1938;50.812;7.738;2023-05-10T13:41:07;13.23;;;6.90;;
3845;SDS011;1938;50.812;7.738;2023-05-10T13:43:32;13.20;;;6.63;;
3845;SDS011;1938;50.812;7.738;2023-05-10T13:45:58;10.50;;;6.37;;
3845;SDS011;1938;50.812;7.738;2023-05-10T13:48:23;15.00;;;7.23;;
3845;SDS011;1938;50.812;7.738;2023-05-10T13:50:49;12.30;;;6.70;;
3845;SDS011;1938;50.812;7.738;2023-05-10T13:53:15;12.37;;;7.70;;
3845;SDS011;1938;50.812;7.738;2023-05-10T13:55:40;13.87;;;6.60;;
3845;SDS011;1938;50.812;7.738;2023-05-10T13:58:06;14.23;;;6.27;;
3845;SDS011;1938;50.812;7.738;2023-05-10T14:00:32;9.10;;;5.60;;
3845;SDS011;1938;50.812;7.738;2023-05-10T14:02:57;13.10;;;6.07;;
3845;SDS011;1938;50.812;7.738;2023-05-10T14:05:23;10.50;;;5.80;;
3845;SDS011;1938;50.812;7.738;2023-05-10T14:07:49;9.77;;;5.80;;
3845;SDS011;1938;50.812;7.738;2023-05-10T14:10:15;8.57;;;4.37;;
3845;SDS011;1938;50.812;7.738;2023-05-10T14:12:41;11.37;;;5.30;;
3845;SDS011;1938;50.812;7.738;2023-05-10T14:15:07;9.57;;;5.20;;
3845;SDS011;1938;50.812;7.738;2023-05-10T14:17:33;9.73;;;5.77;;
3845;SDS011;1938;50.812;7.738;2023-05-10T14:19:58;9.53;;;5.40;;
3845;SDS011;1938;50.812;7.738;2023-05-10T14:22:24;10.10;;;5.50;;
3845;SDS011;1938;50.812;7.738;2023-05-10T14:24:49;16.57;;;5.70;;
3845;SDS011;1938;50.812;7.738;2023-05-10T14:27:15;10.43;;;5.50;;
3845;SDS011;1938;50.812;7.738;2023-05-10T14:29:41;11.40;;;6.07;;
3845;SDS011;1938;50.812;7.738;2023-05-10T14:32:06;11.13;;;5.20;;
3845;SDS011;1938;50.812;7.738;2023-05-10T14:34:32;10.90;;;6.00;;
3845;SDS011;1938;50.812;7.738;2023-05-10T14:36:58;8.53;;;5.03;;
3845;SDS011;1938;50.812;7.738;2023-05-10T14:39:23;8.37;;;5.40;;
3845;SDS011;1938;50.812;7.738;2023-05-10T14:41:49;17.10;;;5.53;;
3845;SDS011;1938;50.812;7.738;2023-05-10T14:44:17;9.03;;;5.17;;
3845;SDS011;1938;50.812;7.738;2023-05-10T14:46:42;8.93;;;4.63;;
3845;SDS011;1938;50.812;7.738;2023-05-10T14:49:08;8.57;;;5.10;;
3845;SDS011;1938;50.812;7.738;2023-05-10T14:51:33;11.70;;;7.03;;
3845;SDS011;1938;50.812;7.738;2023-05-10T14:53:59;12.50;;;5.80;;
3845;SDS011;1938;50.812;7.738;2023-05-10T14:56:24;13.83;;;5.40;;
3845;SDS011;1938;50.812;7.738;2023-05-10T14:58:51;12.53;;;7.10;;
3845;SDS011;1938;50.812;7.738;2023-05-10T15:01:16;13.00;;;7.13;;
3845;SDS011;1938;50.812;7.738;2023-05-10T15:03:42;12.43;;;6.90;;
3845;SDS011;1938;50.812;7.738;2023-05-10T15:06:07;14.40;;;5.97;;
3845;SDS011;1938;50.812;7.738;2023-05-10T15:08:33;11.73;;;5.93;;
3845;SDS011;1938;50.812;7.738;2023-05-10T15:10:59;8.40;;;4.17;;
3845;SDS011;1938;50.812;7.738;2023-05-10T15:13:25;9.63;;;5.40;;
3845;SDS011;1938;50.812;7.738;2023-05-10T15:15:51;11.07;;;5.23;;
3845;SDS011;1938;50.812;7.738;2023-05-10T15:18:18;9.80;;;5.30;;
3845;SDS011;1938;50.812;7.738;2023-05-10T15:20:43;11.37;;;5.03;;
3845;SDS011;1938;50.812;7.738;2023-05-10T15:23:09;14.00;;;6.27;;
3845;SDS011;1938;50.812;7.738;2023-05-10T15:25:34;14.50;;;5.97;;
3845;SDS011;1938;50.812;7.738;2023-05-10T15:28:02;11.30;;;5.67;;
3845;SDS011;1938;50.812;7.738;2023-05-10T15:30:28;10.90;;;5.17;;
3845;SDS011;1938;50.812;7.738;2023-05-10T15:32:54;15.30;;;6.10;;
3845;SDS011;1938;50.812;7.738;2023-05-10T15:35:20;9.80;;;4.90;;
3845;SDS011;1938;50.812;7.738;2023-05-10T15:37:47;9.23;;;4.63;;
3845;SDS011;1938;50.812;7.738;2023-05-10T15:40:13;10.57;;;6.30;;
3845;SDS011;1938;50.812;7.738;2023-05-10T15:42:39;15.70;;;5.10;;
3845;SDS011;1938;50.812;7.738;2023-05-10T15:45:04;14.27;;;5.40;;
3845;SDS011;1938;50.812;7.738;2023-05-10T15:47:31;10.30;;;5.13;;
3845;SDS011;1938;50.812;7.738;2023-05-10T15:49:56;10.90;;;5.97;;